createdAt,value
2018-11-25T00:00:46.770Z,4.93
2018-11-25T00:03:15.328Z,4.97
2018-11-25T00:05:43.786Z,4.99
2018-11-25T00:08:12.270Z,5.03
2018-11-25T00:10:40.754Z,5.06
2018-11-25T00:13:09.269Z,5.10
2018-11-25T00:17:02.114Z,5.07
2018-11-25T00:19:30.607Z,5.17
2018-11-25T00:21:59.092Z,5.15
2018-11-25T00:24:27.598Z,5.12
2018-11-25T00:26:56.095Z,5.17
2018-11-25T00:29:24.647Z,5.20
2018-11-25T00:31:53.217Z,5.22
2018-11-25T00:34:21.731Z,5.21
2018-11-25T00:36:50.186Z,5.24
2018-11-25T00:39:18.699Z,5.25
2018-11-25T00:41:47.242Z,5.10
2018-11-25T00:44:15.768Z,5.04
2018-11-25T00:46:44.281Z,5.07
2018-11-25T00:49:12.803Z,5.03
2018-11-25T00:51:41.287Z,4.92
2018-11-25T00:54:09.806Z,5.02
2018-11-25T00:56:38.302Z,5.09
2018-11-25T00:59:06.853Z,4.91
2018-11-25T01:01:35.331Z,4.86
2018-11-25T01:04:03.867Z,4.90
2018-11-25T01:06:32.395Z,5.00
2018-11-25T01:09:00.914Z,5.03
2018-11-25T01:11:29.397Z,4.99
2018-11-25T01:13:57.973Z,5.03
2018-11-25T01:16:26.449Z,4.94
2018-11-25T01:18:54.930Z,4.98
2018-11-25T01:21:23.410Z,4.98
2018-11-25T01:23:51.916Z,4.93
2018-11-25T01:26:20.385Z,4.87
2018-11-25T01:28:48.909Z,4.82
2018-11-25T01:31:17.356Z,4.85
2018-11-25T01:33:45.859Z,4.77
2018-11-25T01:36:14.327Z,4.71
2018-11-25T01:38:42.854Z,4.53
2018-11-25T01:41:11.355Z,4.53
2018-11-25T01:43:39.850Z,4.63
2018-11-25T01:46:08.313Z,4.63
2018-11-25T01:48:36.838Z,4.68
2018-11-25T01:51:05.488Z,4.64
2018-11-25T01:53:34.019Z,4.44
2018-11-25T01:56:02.519Z,4.30
2018-11-25T01:58:31.008Z,4.18
2018-11-25T02:00:59.487Z,4.28
2018-11-25T02:03:27.966Z,4.26
2018-11-25T02:05:56.458Z,4.27
2018-11-25T02:08:24.974Z,4.32
2018-11-25T02:10:53.660Z,4.38
2018-11-25T02:13:22.162Z,4.36
2018-11-25T02:15:50.663Z,4.43
2018-11-25T02:18:19.134Z,4.42
2018-11-25T02:20:47.647Z,4.45
2018-11-25T02:23:16.126Z,4.46
2018-11-25T02:25:44.653Z,4.50
2018-11-25T02:28:13.121Z,4.51
2018-11-25T02:30:41.614Z,4.50
2018-11-25T02:33:10.070Z,4.53
2018-11-25T02:35:38.588Z,4.61
2018-11-25T02:38:07.102Z,4.60
2018-11-25T02:40:35.617Z,4.66
2018-11-25T02:43:04.100Z,4.65
2018-11-25T02:45:32.645Z,4.63
2018-11-25T02:48:01.124Z,4.57
2018-11-25T02:50:31.108Z,4.47
2018-11-25T02:53:01.579Z,4.50
2018-11-25T02:55:30.125Z,4.40
2018-11-25T02:57:58.579Z,4.23
2018-11-25T03:00:27.104Z,4.16
2018-11-25T03:02:55.562Z,3.90
2018-11-25T03:05:24.077Z,3.79
2018-11-25T03:07:52.607Z,3.75
2018-11-25T03:10:21.110Z,3.77
2018-11-25T03:12:49.610Z,3.72
2018-11-25T03:15:18.528Z,3.72
2018-11-25T03:17:47.023Z,3.64
2018-11-25T03:20:16.435Z,3.64
2018-11-25T03:22:44.978Z,3.75
2018-11-25T03:25:17.495Z,3.98
2018-11-25T03:27:46.094Z,4.07
2018-11-25T03:30:16.385Z,4.20
2018-11-25T03:32:45.682Z,4.23
2018-11-25T03:35:14.663Z,4.31
2018-11-25T03:37:43.158Z,4.40
2018-11-25T03:40:12.813Z,4.40
2018-11-25T03:42:41.328Z,4.38
2018-11-25T03:45:14.884Z,4.06
2018-11-25T03:47:43.391Z,4.02
2018-11-25T03:50:12.667Z,4.07
2018-11-25T03:52:41.147Z,4.07
2018-11-25T03:55:13.398Z,4.16
2018-11-25T03:57:41.903Z,4.18
2018-11-25T04:00:15.002Z,4.31
2018-11-25T04:02:43.579Z,4.32
2018-11-25T04:05:13.478Z,4.41
2018-11-25T04:07:41.983Z,4.43
2018-11-25T04:10:12.723Z,4.49
2018-11-25T04:12:41.226Z,4.41
2018-11-25T04:15:13.769Z,4.45
2018-11-25T04:17:42.272Z,4.48
2018-11-25T04:20:13.874Z,4.49
2018-11-25T04:22:42.358Z,4.50
2018-11-25T04:25:11.589Z,4.52
2018-11-25T04:27:40.100Z,4.53
2018-11-25T04:30:12.762Z,4.55
2018-11-25T04:32:41.302Z,4.49
2018-11-25T04:35:10.835Z,4.58
2018-11-25T04:37:39.369Z,4.53
2018-11-25T04:40:09.439Z,4.45
2018-11-25T04:42:37.953Z,4.51
2018-11-25T04:45:08.259Z,4.64
2018-11-25T04:47:36.734Z,4.62
2018-11-25T04:50:10.222Z,4.70
2018-11-25T04:52:38.695Z,4.66
2018-11-25T04:55:08.885Z,4.66
2018-11-25T04:57:37.372Z,4.70
2018-11-25T05:00:09.178Z,4.61
2018-11-25T05:02:37.678Z,4.70
2018-11-25T05:05:07.768Z,4.64
2018-11-25T05:07:36.282Z,4.52
2018-11-25T05:10:06.056Z,4.66
2018-11-25T05:12:34.558Z,4.65
2018-11-25T05:15:03.075Z,4.63
2018-11-25T05:17:31.568Z,4.60
2018-11-25T05:20:00.093Z,4.71
2018-11-25T05:22:28.573Z,4.75
2018-11-25T05:24:57.069Z,4.81
2018-11-25T05:27:25.544Z,4.81
2018-11-25T05:29:54.051Z,4.80
2018-11-25T05:32:22.521Z,4.90
2018-11-25T05:34:51.019Z,4.98
2018-11-25T05:37:19.502Z,4.96
2018-11-25T05:39:49.865Z,5.02
2018-11-25T05:42:18.362Z,5.06
2018-11-25T05:44:46.847Z,4.99
2018-11-25T05:47:15.293Z,5.07
2018-11-25T05:49:43.825Z,5.07
2018-11-25T05:52:12.287Z,5.09
2018-11-25T05:54:40.790Z,5.02
2018-11-25T05:57:09.278Z,5.08
2018-11-25T05:59:37.742Z,5.13
2018-11-25T06:02:06.622Z,5.10
2018-11-25T06:04:35.120Z,5.11
2018-11-25T06:07:03.588Z,5.13
2018-11-25T06:09:32.097Z,5.17
2018-11-25T06:12:00.598Z,5.23
2018-11-25T06:14:29.095Z,5.28
2018-11-25T06:17:06.399Z,5.16
2018-11-25T06:19:34.924Z,5.20
2018-11-25T06:22:03.428Z,5.22
2018-11-25T06:24:31.905Z,4.98
2018-11-25T06:27:00.406Z,4.86
2018-11-25T06:29:28.926Z,4.77
2018-11-25T06:31:57.443Z,4.65
2018-11-25T06:34:25.891Z,4.66
2018-11-25T06:36:54.393Z,4.57
2018-11-25T06:39:22.851Z,4.49
2018-11-25T06:41:51.334Z,4.52
2018-11-25T06:44:19.819Z,4.53
2018-11-25T06:46:48.430Z,4.33
2018-11-25T06:49:16.916Z,4.33
2018-11-25T06:51:45.422Z,4.30
2018-11-25T06:54:13.882Z,4.32
2018-11-25T06:56:42.397Z,4.37
2018-11-25T06:59:10.883Z,4.44
2018-11-25T07:01:39.372Z,4.43
2018-11-25T07:04:08.732Z,4.34
2018-11-25T07:06:37.276Z,4.28
2018-11-25T07:09:11.211Z,4.39
2018-11-25T07:11:39.735Z,4.50
2018-11-25T07:14:08.306Z,4.61
2018-11-25T07:16:36.854Z,4.71
2018-11-25T07:19:05.939Z,4.81
2018-11-25T07:21:34.636Z,4.87
2018-11-25T07:24:03.142Z,4.95
2018-11-25T07:26:31.667Z,4.94
2018-11-25T07:29:01.499Z,5.07
2018-11-25T07:31:30.019Z,5.08
2018-11-25T07:33:58.486Z,5.07
2018-11-25T07:36:26.969Z,5.18
2018-11-25T07:38:55.578Z,5.20
2018-11-25T07:41:24.054Z,5.18
2018-11-25T07:43:52.502Z,5.14
2018-11-25T07:46:20.999Z,5.27
2018-11-25T07:48:49.445Z,5.32
2018-11-25T07:51:17.949Z,5.32
2018-11-25T07:53:46.443Z,5.37
2018-11-25T07:56:14.955Z,5.44
2018-11-25T07:58:43.443Z,5.38
2018-11-25T08:01:11.922Z,5.51
2018-11-25T08:03:40.398Z,5.57
2018-11-25T08:06:08.906Z,5.53
2018-11-25T08:08:37.405Z,5.59
2018-11-25T08:11:06.114Z,5.53
2018-11-25T08:13:34.643Z,5.61
2018-11-25T08:16:03.193Z,5.64
2018-11-25T08:18:31.683Z,5.68
2018-11-25T08:21:00.201Z,5.65
2018-11-25T08:23:28.709Z,5.76
2018-11-25T08:25:57.203Z,5.77
2018-11-25T08:28:25.707Z,5.78
2018-11-25T08:30:54.225Z,5.90
2018-11-25T08:33:22.708Z,5.94
2018-11-25T08:35:51.252Z,6.01
2018-11-25T08:38:19.735Z,6.15
2018-11-25T08:40:48.347Z,6.19
2018-11-25T08:43:16.822Z,6.19
2018-11-25T08:45:45.335Z,6.18
2018-11-25T08:48:13.802Z,6.24
2018-11-25T08:50:42.306Z,6.31
2018-11-25T08:53:10.786Z,6.36
2018-11-25T08:55:39.282Z,6.41
2018-11-25T08:58:07.977Z,6.58
2018-11-25T09:00:37.076Z,6.65
2018-11-25T09:03:05.600Z,6.83
2018-11-25T09:05:34.927Z,6.92
2018-11-25T09:08:02.676Z,7.00
2018-11-25T09:10:31.185Z,7.09
2018-11-25T09:12:59.727Z,7.04
2018-11-25T09:15:29.622Z,7.06
2018-11-25T09:17:58.269Z,7.10
2018-11-25T09:20:26.781Z,7.20
2018-11-25T09:22:55.329Z,7.20
2018-11-25T09:25:28.883Z,7.23
2018-11-25T09:27:58.163Z,7.39
2018-11-25T09:30:27.666Z,7.59
2018-11-25T09:32:56.213Z,7.56
2018-11-25T09:35:25.242Z,7.52
2018-11-25T09:37:53.773Z,7.36
2018-11-25T09:40:23.546Z,7.22
2018-11-25T09:42:52.099Z,7.31
2018-11-25T09:45:21.113Z,7.49
2018-11-25T09:47:50.059Z,7.59
2018-11-25T09:50:20.403Z,7.79
2018-11-25T09:52:48.942Z,7.95
2018-11-25T09:55:18.427Z,8.10
2018-11-25T09:57:50.188Z,8.30
2018-11-25T10:00:28.399Z,8.30
2018-11-25T10:02:56.948Z,8.44
2018-11-25T10:05:25.475Z,8.46
2018-11-25T10:07:54.022Z,8.63
2018-11-25T10:10:23.574Z,8.77
2018-11-25T10:12:52.136Z,8.77
2018-11-25T10:15:21.836Z,9.09
2018-11-25T10:17:50.372Z,9.19
2018-11-25T10:20:20.007Z,9.50
2018-11-25T10:22:48.541Z,9.79
2018-11-25T10:25:17.442Z,9.83
2018-11-25T10:27:46.028Z,10.23
2018-11-25T10:30:23.150Z,10.37
2018-11-25T10:32:52.778Z,10.78
2018-11-25T10:35:21.298Z,10.93
2018-11-25T10:37:49.830Z,10.95
2018-11-25T10:40:19.439Z,11.03
2018-11-25T10:42:48.006Z,11.04
2018-11-25T10:45:17.605Z,10.98
2018-11-25T10:47:46.148Z,10.80
2018-11-25T10:50:16.561Z,10.75
2018-11-25T10:52:45.107Z,10.63
2018-11-25T10:55:14.501Z,10.21
2018-11-25T10:57:43.936Z,9.84
2018-11-25T11:00:36.550Z,9.80
2018-11-25T11:03:11.571Z,9.57
2018-11-25T11:05:45.240Z,9.31
2018-11-25T11:08:13.768Z,9.27
2018-11-25T11:10:42.263Z,9.59
2018-11-25T11:13:10.819Z,10.10
2018-11-25T11:15:39.347Z,10.51
2018-11-25T11:18:08.222Z,10.64
2018-11-25T11:20:36.730Z,10.74
2018-11-25T11:23:05.327Z,10.84
2018-11-25T11:25:33.823Z,10.67
2018-11-25T11:28:02.363Z,10.73
2018-11-25T11:30:30.887Z,10.65
2018-11-25T11:32:59.415Z,10.63
2018-11-25T11:35:27.946Z,10.64
2018-11-25T11:37:56.480Z,10.75
2018-11-25T11:40:24.969Z,11.04
2018-11-25T11:42:53.510Z,11.16
2018-11-25T11:45:21.997Z,11.22
2018-11-25T11:47:50.523Z,11.72
2018-11-25T11:50:20.544Z,11.64
2018-11-25T11:52:49.061Z,11.38
2018-11-25T11:55:18.309Z,11.21
2018-11-25T11:57:47.590Z,10.84
2018-11-25T12:00:25.644Z,10.67
2018-11-25T12:02:54.189Z,10.60
2018-11-25T12:05:22.689Z,10.57
2018-11-25T12:07:51.227Z,10.41
2018-11-25T12:10:20.031Z,10.23
2018-11-25T12:12:48.566Z,10.10
2018-11-25T12:15:19.648Z,9.68
2018-11-25T12:17:48.167Z,9.43
2018-11-25T12:20:16.630Z,9.39
2018-11-25T12:22:45.564Z,9.31
2018-11-25T12:25:15.955Z,9.26
2018-11-25T12:27:44.530Z,9.10
2018-11-25T12:30:15.033Z,9.17
2018-11-25T12:32:44.551Z,9.50
2018-11-25T12:35:14.094Z,9.60
2018-11-25T12:37:42.836Z,9.59
2018-11-25T12:40:12.892Z,9.70
2018-11-25T12:42:41.941Z,9.68
2018-11-25T12:45:12.355Z,9.68
2018-11-25T12:47:40.862Z,9.69
2018-11-25T12:50:11.110Z,9.50
2018-11-25T12:52:39.660Z,9.40
2018-11-25T12:55:11.926Z,9.48
2018-11-25T12:57:40.624Z,9.62
2018-11-25T13:00:16.947Z,9.42
2018-11-25T13:02:45.614Z,9.42
2018-11-25T13:05:17.493Z,9.29
2018-11-25T13:07:46.010Z,9.22
2018-11-25T13:10:14.736Z,9.18
2018-11-25T13:12:43.250Z,9.00
2018-11-25T13:15:11.780Z,8.78
2018-11-25T13:17:40.252Z,8.85
2018-11-25T13:20:12.101Z,8.47
2018-11-25T13:22:40.968Z,8.14
2018-11-25T13:25:10.882Z,7.91
2018-11-25T13:27:39.477Z,7.79
2018-11-25T13:30:12.835Z,7.67
2018-11-25T13:32:41.446Z,7.70
2018-11-25T13:35:10.463Z,7.54
2018-11-25T13:37:39.017Z,7.39
2018-11-25T13:40:10.203Z,7.37
2018-11-25T13:42:38.712Z,7.24
2018-11-25T13:45:06.014Z,7.02
2018-11-25T13:47:34.506Z,6.93
2018-11-25T13:50:03.066Z,6.89
2018-11-25T13:52:31.570Z,6.69
2018-11-25T13:55:01.358Z,6.62
2018-11-25T13:57:29.860Z,6.52
2018-11-25T13:59:58.454Z,6.19
2018-11-25T14:02:27.016Z,6.12
2018-11-25T14:04:55.994Z,5.99
2018-11-25T14:07:24.481Z,6.05
2018-11-25T14:09:53.003Z,5.82
2018-11-25T14:12:21.515Z,5.65
2018-11-25T14:14:50.039Z,5.50
2018-11-25T14:17:18.535Z,5.43
2018-11-25T14:19:47.084Z,5.44
2018-11-25T14:22:15.671Z,5.44
2018-11-25T14:24:44.206Z,5.26
2018-11-25T14:27:12.721Z,5.21
2018-11-25T14:29:41.235Z,5.16
2018-11-25T14:32:10.035Z,5.17
2018-11-25T14:34:38.545Z,5.12
2018-11-25T14:37:07.108Z,5.06
2018-11-25T14:39:35.647Z,4.98
2018-11-25T14:42:04.166Z,4.93
2018-11-25T14:44:32.670Z,4.78
2018-11-25T14:47:01.262Z,4.67
2018-11-25T14:49:30.064Z,4.59
2018-11-25T14:51:59.823Z,4.45
2018-11-25T14:54:28.323Z,4.42
2018-11-25T14:56:56.936Z,4.43
2018-11-25T14:59:25.407Z,4.43
2018-11-25T15:01:53.975Z,4.43
2018-11-25T15:04:22.503Z,4.33
2018-11-25T15:06:51.059Z,4.16
2018-11-25T15:09:19.564Z,4.18
2018-11-25T15:11:48.080Z,4.07
2018-11-25T15:14:16.615Z,3.97
2018-11-25T15:16:45.178Z,4.02
2018-11-25T15:19:13.670Z,3.97
2018-11-25T15:21:42.243Z,3.97
2018-11-25T15:24:10.780Z,3.82
2018-11-25T15:26:39.348Z,3.72
2018-11-25T15:29:07.866Z,3.71
2018-11-25T15:31:36.423Z,3.70
2018-11-25T15:34:04.980Z,3.68
2018-11-25T15:36:33.544Z,3.77
2018-11-25T15:39:02.058Z,3.87
2018-11-25T15:41:30.598Z,3.81
2018-11-25T15:43:59.107Z,3.80
2018-11-25T15:46:27.637Z,3.88
2018-11-25T15:48:56.182Z,3.96
2018-11-25T15:51:25.610Z,4.05
2018-11-25T15:53:54.159Z,4.07
2018-11-25T15:56:22.840Z,4.19
2018-11-25T15:58:52.242Z,4.29
2018-11-25T16:01:20.786Z,4.32
2018-11-25T16:03:49.315Z,4.23
2018-11-25T16:06:24.287Z,4.34
2018-11-25T16:08:52.826Z,4.41
2018-11-25T16:11:21.390Z,4.44
2018-11-25T16:13:49.899Z,4.47
2018-11-25T16:16:18.416Z,4.55
2018-11-25T16:18:46.917Z,4.52
2018-11-25T16:21:15.478Z,4.64
2018-11-25T16:23:43.959Z,4.64
2018-11-25T16:26:50.773Z,4.69
2018-11-25T16:29:23.770Z,4.73
2018-11-25T16:31:52.294Z,4.76
2018-11-25T16:34:20.794Z,4.87
2018-11-25T16:36:49.988Z,4.80
2018-11-25T16:39:18.482Z,4.87
2018-11-25T16:41:47.005Z,4.92
2018-11-25T16:44:15.522Z,5.00
2018-11-25T16:46:44.041Z,5.09
2018-11-25T16:49:12.648Z,5.14
2018-11-25T16:51:41.180Z,5.22
2018-11-25T16:54:09.770Z,5.14
2018-11-25T16:56:38.255Z,5.19
2018-11-25T16:59:06.810Z,5.19
2018-11-25T17:01:35.322Z,5.29
2018-11-25T17:04:03.866Z,5.30
2018-11-25T17:06:32.958Z,5.32
2018-11-25T17:09:01.472Z,5.33
2018-11-25T17:11:31.088Z,5.40
2018-11-25T17:13:59.635Z,5.40
2018-11-25T17:16:28.150Z,5.42
2018-11-25T17:18:56.698Z,5.45
2018-11-25T17:21:25.175Z,5.42
2018-11-25T17:23:54.818Z,5.44
2018-11-25T17:26:23.307Z,5.49
2018-11-25T17:28:51.828Z,5.47
2018-11-25T17:31:20.390Z,5.49
2018-11-25T17:33:48.891Z,5.42
2018-11-25T17:36:17.410Z,5.57
2018-11-25T17:38:45.924Z,5.46
2018-11-25T17:41:14.414Z,5.47
2018-11-25T17:43:42.916Z,5.55
2018-11-25T17:46:11.938Z,5.53
2018-11-25T17:48:40.455Z,5.50
2018-11-25T17:51:08.950Z,5.57
2018-11-25T17:53:37.807Z,5.57
2018-11-25T17:56:06.823Z,5.53
2018-11-25T17:58:35.394Z,5.56
2018-11-25T18:01:06.047Z,5.54
2018-11-25T18:03:36.173Z,5.52
2018-11-25T18:06:04.858Z,5.66
2018-11-25T18:08:33.454Z,5.64
2018-11-25T18:11:02.062Z,5.59
2018-11-25T18:13:34.051Z,5.53
2018-11-25T18:16:03.826Z,5.52
2018-11-25T18:18:50.103Z,5.44
2018-11-25T18:21:21.607Z,5.39
2018-11-25T18:23:50.123Z,5.24
2018-11-25T18:26:18.706Z,5.18
2018-11-25T18:28:47.226Z,5.01
2018-11-25T18:31:15.721Z,5.02
2018-11-25T18:33:44.345Z,4.97
2018-11-25T18:36:14.325Z,4.89
2018-11-25T18:38:42.857Z,4.81
2018-11-25T18:41:11.411Z,4.79
2018-11-25T18:43:40.205Z,4.70
2018-11-25T18:46:08.759Z,4.67
2018-11-25T18:48:39.443Z,4.60
2018-11-25T18:51:07.983Z,4.57
2018-11-25T18:53:37.714Z,4.55
2018-11-25T18:56:06.518Z,4.50
2018-11-25T18:58:35.022Z,4.42
2018-11-25T19:01:13.910Z,4.38
2018-11-25T19:03:44.005Z,4.41
2018-11-25T19:06:12.551Z,4.45
2018-11-25T19:08:41.195Z,4.44
2018-11-25T19:11:09.695Z,4.39
2018-11-25T19:13:38.213Z,4.34
2018-11-25T19:16:06.798Z,4.26
2018-11-25T19:18:35.610Z,4.34
2018-11-25T19:21:04.112Z,4.30
2018-11-25T19:23:32.610Z,4.34
2018-11-25T19:26:01.091Z,4.36
2018-11-25T19:28:29.608Z,4.44
2018-11-25T19:30:58.084Z,4.50
2018-11-25T19:33:28.047Z,4.55
2018-11-25T19:35:56.549Z,4.62
2018-11-25T19:38:25.033Z,4.60
2018-11-25T19:40:53.534Z,4.71
2018-11-25T19:43:22.075Z,4.73
2018-11-25T19:45:50.556Z,4.70
2018-11-25T19:48:19.060Z,4.72
2018-11-25T19:50:47.559Z,4.76
2018-11-25T19:53:16.093Z,4.72
2018-11-25T19:55:44.578Z,4.80
2018-11-25T19:58:13.096Z,4.86
2018-11-25T20:00:41.570Z,4.92
2018-11-25T20:03:10.061Z,4.83
2018-11-25T20:05:38.600Z,4.86
2018-11-25T20:08:07.778Z,4.79
2018-11-25T20:10:36.301Z,4.66
2018-11-25T20:13:05.131Z,4.66
2018-11-25T20:15:33.666Z,4.40
2018-11-25T20:18:02.170Z,4.43
2018-11-25T20:20:30.698Z,4.27
2018-11-25T20:22:59.235Z,4.15
2018-11-25T20:25:27.740Z,4.22
2018-11-25T20:27:56.963Z,4.29
2018-11-25T20:30:29.016Z,4.39
2018-11-25T20:33:02.695Z,4.49
2018-11-25T20:35:31.226Z,4.59
2018-11-25T20:38:05.083Z,4.66
2018-11-25T20:40:33.627Z,4.65
2018-11-25T20:43:02.114Z,4.71
2018-11-25T20:45:39.084Z,4.70
2018-11-25T20:48:04.453Z,4.69
2018-11-25T20:50:32.977Z,4.64
2018-11-25T20:53:06.683Z,4.65
2018-11-25T20:55:35.183Z,4.65
2018-11-25T20:58:03.682Z,4.60
2018-11-25T21:01:56.662Z,4.61
2018-11-25T21:04:25.169Z,4.50
2018-11-25T21:06:53.634Z,4.42
2018-11-25T21:09:22.182Z,4.42
2018-11-25T21:11:50.654Z,4.43
2018-11-25T21:14:19.200Z,4.44
2018-11-25T21:16:47.703Z,4.44
2018-11-25T21:19:16.180Z,4.41
2018-11-25T21:21:44.711Z,4.36
2018-11-25T21:24:13.203Z,4.41
2018-11-25T21:26:41.839Z,4.44
2018-11-25T21:29:10.501Z,4.32
2018-11-25T21:31:39.025Z,4.31
2018-11-25T21:34:07.526Z,4.32
2018-11-25T21:36:36.020Z,4.30
2018-11-25T21:39:07.352Z,4.23
2018-11-25T21:41:35.858Z,4.25
2018-11-25T21:44:04.382Z,4.21
2018-11-25T21:46:32.857Z,4.25
2018-11-25T21:49:01.326Z,4.29
2018-11-25T21:51:29.913Z,4.26
2018-11-25T21:53:58.411Z,4.16
2018-11-25T21:56:26.944Z,4.09
2018-11-25T21:58:55.419Z,4.15
2018-11-25T22:01:23.963Z,4.24
2018-11-25T22:03:52.445Z,4.14
2018-11-25T22:06:20.955Z,4.24
2018-11-25T22:08:49.938Z,4.20
2018-11-25T22:11:18.466Z,4.24
2018-11-25T22:13:46.942Z,4.19
2018-11-25T22:16:15.461Z,4.22
2018-11-25T22:18:43.958Z,4.16
2018-11-25T22:21:12.477Z,4.17
2018-11-25T22:23:40.934Z,4.19
2018-11-25T22:26:09.541Z,4.21
2018-11-25T22:28:38.021Z,4.25
2018-11-25T22:31:07.210Z,4.26
2018-11-25T22:33:35.751Z,4.32
2018-11-25T22:36:04.309Z,4.31
2018-11-25T22:38:32.814Z,4.35
2018-11-25T22:41:01.344Z,4.37
2018-11-25T22:43:29.806Z,4.28
2018-11-25T22:45:58.328Z,4.26
2018-11-25T22:48:26.817Z,4.31
2018-11-25T22:50:55.367Z,4.31
2018-11-25T22:53:23.889Z,4.38
2018-11-25T22:55:52.399Z,4.36
2018-11-25T22:58:20.950Z,4.28
2018-11-25T23:00:52.542Z,4.38
2018-11-25T23:03:22.119Z,4.40
2018-11-25T23:08:02.289Z,4.35
2018-11-25T23:10:30.813Z,4.35
2018-11-25T23:12:59.370Z,4.27
2018-11-25T23:15:27.875Z,4.31
2018-11-25T23:17:56.394Z,4.31
2018-11-25T23:20:24.891Z,4.36
2018-11-25T23:22:53.474Z,4.44
2018-11-25T23:25:21.982Z,4.46
2018-11-25T23:27:50.507Z,4.48
2018-11-25T23:30:18.986Z,4.36
2018-11-25T23:32:47.510Z,4.29
2018-11-25T23:35:20.463Z,4.41
2018-11-25T23:37:48.974Z,4.29
2018-11-25T23:40:17.461Z,4.28
2018-11-25T23:42:46.052Z,4.27
2018-11-25T23:45:15.658Z,4.36
2018-11-25T23:47:44.226Z,4.41
2018-11-25T23:50:13.691Z,4.32
2018-11-25T23:52:43.230Z,4.27
2018-11-25T23:55:13.801Z,4.29
2018-11-25T23:57:42.359Z,4.24
